Time;durP1;ratioP1;P1;durP2;ratioP2;P2;SDS_P1;SDS_P2;PMS_P1;PMS_P2;Temp;Humidity;BMP_temperature;BMP_pressure;BME280_temperature;BME280_humidity;BME280_pressure;Samples;Min_cycle;Max_cycle;Signal;HPM_P1;HPM_P2
2021/12/31 00:00:58;;;;;;;10.00;3.40;;;;;;;13.21;100.00;101703.47;4938632;28;20027;-73
2021/12/31 00:03:23;;;;;;;9.40;2.88;;;;;;;13.10;100.00;101703.41;4925492;28;20067;-72
2021/12/31 00:05:48;;;;;;;7.03;3.42;;;;;;;13.06;100.00;101716.28;4923086;28;20035;-71
2021/12/31 00:08:14;;;;;;;6.68;2.83;;;;;;;13.09;100.00;101683.69;4919368;28;20031;-74
2021/12/31 00:10:39;;;;;;;9.95;3.65;;;;;;;13.17;100.00;101702.81;4924764;28;20031;-73
2021/12/31 00:13:05;;;;;;;8.15;3.03;;;;;;;13.07;100.00;101706.34;4922858;28;20104;-73
2021/12/31 00:15:30;;;;;;;7.60;3.58;;;;;;;13.20;100.00;101693.66;4905388;28;20394;-72
2021/12/31 00:17:55;;;;;;;6.28;2.75;;;;;;;13.19;100.00;101703.56;4939709;28;20058;-70
2021/12/31 00:20:24;;;;;;;6.93;2.95;;;;;;;13.29;99.44;101698.34;4939198;28;20054;-72
2021/12/31 00:25:28;;;;;;;6.72;3.63;;;;;;;13.37;98.84;101702.31;4938114;28;20479;-73
2021/12/31 00:27:53;;;;;;;12.18;2.88;;;;;;;13.18;99.92;101704.53;4936485;28;20470;-73
2021/12/31 00:30:19;;;;;;;4.45;2.30;;;;;;;13.20;99.73;101707.16;4937171;28;20051;-74
2021/12/31 00:32:44;;;;;;;6.70;2.97;;;;;;;13.33;98.97;101705.22;4937640;28;20027;-72
2021/12/31 00:35:10;;;;;;;5.80;2.90;;;;;;;13.23;98.71;101708.75;4937079;28;20039;-71
2021/12/31 00:37:37;;;;;;;5.63;2.22;;;;;;;13.30;98.42;101707.31;4919687;28;20114;-73
2021/12/31 00:40:08;;;;;;;6.70;2.35;;;;;;;13.15;99.61;101717.41;4916324;28;20046;-70
2021/12/31 00:42:33;;;;;;;7.65;2.58;;;;;;;13.31;97.45;101709.03;4935055;28;21370;-71
2021/12/31 00:44:59;;;;;;;10.02;3.13;;;;;;;13.38;97.65;101710.25;4940081;28;20045;-74
2021/12/31 00:47:24;;;;;;;4.85;2.60;;;;;;;13.29;97.75;101708.28;4925251;28;20131;-73
2021/12/31 00:49:49;;;;;;;6.82;2.22;;;;;;;13.32;97.96;101705.34;4940544;28;20531;-74
2021/12/31 00:52:15;;;;;;;10.38;3.10;;;;;;;13.43;96.95;101718.91;4921647;28;20114;-73
2021/12/31 00:54:40;;;;;;;4.97;2.35;;;;;;;13.31;98.01;101717.13;4938287;28;20491;-73
2021/12/31 00:57:06;;;;;;;7.45;2.97;;;;;;;13.49;96.14;101713.03;4937571;28;20027;-71
2021/12/31 00:59:31;;;;;;;4.20;2.67;;;;;;;13.42;97.12;101713.63;4939573;28;20031;-74
2021/12/31 01:01:58;;;;;;;5.50;2.75;;;;;;;13.38;97.16;101721.06;4935753;28;20074;-72
2021/12/31 01:04:23;;;;;;;8.38;2.45;;;;;;;13.10;98.54;101700.72;4919850;28;20027;-72
2021/12/31 01:06:49;;;;;;;5.93;2.38;;;;;;;13.40;97.05;101715.56;4936128;28;20074;-71
2021/12/31 01:09:15;;;;;;;3.90;2.35;;;;;;;13.32;97.13;101717.00;4939349;28;20268;-70
2021/12/31 01:11:42;;;;;;;8.93;2.45;;;;;;;13.48;96.25;101718.56;4937535;28;20067;-73
2021/12/31 01:14:19;;;;;;;4.70;2.50;;;;;;;13.25;97.78;101717.56;4905205;28;20035;-72
2021/12/31 01:16:49;;;;;;;8.50;2.97;;;;;;;13.29;97.77;101713.69;4936687;28;20031;-73
2021/12/31 01:21:40;;;;;;;6.80;2.67;;;;;;;13.47;97.43;101724.94;4919604;28;20027;-71
2021/12/31 01:24:05;;;;;;;4.60;2.40;;;;;;;13.23;98.04;101722.22;4920904;28;20404;-71
2021/12/31 01:26:32;;;;;;;9.77;2.70;;;;;;;13.02;99.20;101712.06;4936494;28;20518;-73
2021/12/31 01:28:57;;;;;;;4.10;2.22;;;;;;;13.10;98.08;101709.69;4937217;28;20027;-72
2021/12/31 01:31:24;;;;;;;4.20;2.47;;;;;;;13.19;97.69;101711.66;4920575;28;20383;-74
2021/12/31 01:33:49;;;;;;;7.85;2.85;;;;;;;13.19;97.89;101710.81;4905951;28;20035;-73
2021/12/31 01:36:15;;;;;;;6.55;1.98;;;;;;;13.39;96.88;101713.84;4937361;28;20027;-72
2021/12/31 01:38:40;;;;;;;3.80;2.08;;;;;;;13.06;99.00;101718.97;4938940;28;20035;-72
2021/12/31 01:41:05;;;;;;;5.57;2.60;;;;;;;13.25;97.69;101714.88;4921413;28;20031;-74
2021/12/31 01:43:31;;;;;;;7.13;3.35;;;;;;;13.31;96.40;101723.34;4920561;28;20046;-73
2021/12/31 01:45:59;;;;;;;11.32;2.78;;;;;;;13.29;96.46;101730.69;4920554;28;20453;-72
2021/12/31 01:48:34;;;;;;;8.45;3.13;;;;;;;13.26;97.14;101746.25;4921153;28;20059;-73
2021/12/31 01:51:00;;;;;;;8.02;2.70;;;;;;;13.32;96.96;101725.09;4936486;28;20119;-74
2021/12/31 01:53:26;;;;;;;5.85;2.58;;;;;;;13.15;96.99;101722.81;4925088;28;20039;-74
2021/12/31 01:55:58;;;;;;;5.38;2.30;;;;;;;13.43;95.02;101720.75;4934166;28;20141;-71
2021/12/31 01:58:24;;;;;;;4.43;2.20;;;;;;;13.45;95.26;101735.84;4920601;28;20471;-73
2021/12/31 02:00:50;;;;;;;9.30;2.22;;;;;;;13.29;96.50;101740.66;4918535;28;20028;-73
2021/12/31 02:03:19;;;;;;;6.10;2.53;;;;;;;13.38;95.46;101739.09;4904108;28;20035;-72
2021/12/31 02:05:45;;;;;;;4.50;2.20;;;;;;;13.11;96.80;101734.78;4934771;28;20027;-72
2021/12/31 02:08:10;;;;;;;7.88;2.42;;;;;;;13.18;96.68;101746.84;4936982;28;20035;-73
2021/12/31 02:10:35;;;;;;;6.82;2.50;;;;;;;13.17;96.28;101743.28;4920266;28;20035;-72
2021/12/31 02:13:01;;;;;;;7.50;2.35;;;;;;;13.22;96.34;101748.34;4921976;28;20395;-72
2021/12/31 02:15:27;;;;;;;7.65;2.28;;;;;;;13.19;95.90;101740.47;4917984;28;20071;-72
2021/12/31 02:17:53;;;;;;;4.03;1.92;;;;;;;13.22;96.00;101737.56;4937777;28;20027;-72
2021/12/31 02:20:20;;;;;;;6.95;2.47;;;;;;;13.39;94.25;101728.16;4918972;29;20663;-74
2021/12/31 02:23:05;;;;;;;2.90;2.05;;;;;;;13.45;94.28;101727.75;4939164;28;20027;-72
2021/12/31 02:25:31;;;;;;;7.75;2.65;;;;;;;13.33;95.05;101742.97;4922242;28;20023;-73
2021/12/31 02:27:56;;;;;;;6.75;2.30;;;;;;;13.32;95.27;101721.53;4908956;28;20039;-74
2021/12/31 02:30:22;;;;;;;3.53;1.75;;;;;;;13.14;95.66;101723.78;4919844;28;20403;-74
2021/12/31 02:32:47;;;;;;;3.70;2.42;;;;;;;13.38;95.51;101733.69;4922122;28;20523;-72
2021/12/31 02:35:12;;;;;;;7.00;3.35;;;;;;;13.19;95.73;101735.94;4937697;28;20043;-73
2021/12/31 02:37:38;;;;;;;5.30;2.22;;;;;;;13.23;95.76;101735.69;4935969;28;20456;-75
2021/12/31 02:40:07;;;;;;;3.97;2.15;;;;;;;12.99;96.71;101729.31;4919041;28;20031;-71
2021/12/31 02:42:33;;;;;;;5.03;2.30;;;;;;;13.32;95.97;101729.63;4936123;28;20039;-72
2021/12/31 02:44:59;;;;;;;6.85;2.20;;;;;;;13.09;96.06;101725.94;4935328;28;20065;-73
2021/12/31 02:47:24;;;;;;;3.47;1.92;;;;;;;13.07;96.42;101726.06;4940824;28;20031;-72
2021/12/31 02:49:49;;;;;;;8.70;2.45;;;;;;;13.29;95.24;101721.75;4933792;28;20036;-73
2021/12/31 02:52:17;;;;;;;4.50;2.03;;;;;;;13.24;94.93;101716.72;4937169;28;20173;-73
2021/12/31 02:54:45;;;;;;;6.40;2.42;;;;;;;13.20;95.04;101718.78;4920184;28;20042;-73
2021/12/31 02:57:11;;;;;;;10.93;2.13;;;;;;;13.20;94.71;101734.97;4923091;28;20031;-73
2021/12/31 02:59:36;;;;;;;4.60;2.17;;;;;;;13.22;93.94;101715.97;4937096;28;20759;-73
2021/12/31 03:02:06;;;;;;;7.28;2.25;;;;;;;13.26;94.63;101713.91;4938711;28;20483;-72
2021/12/31 03:04:31;;;;;;;5.28;2.20;;;;;;;13.24;94.68;101713.16;4921043;28;20206;-73
2021/12/31 03:06:57;;;;;;;7.45;2.28;;;;;;;13.17;94.90;101702.81;4935232;28;20061;-72
2021/12/31 03:09:24;;;;;;;7.18;2.30;;;;;;;13.09;95.22;101712.47;4921087;28;20035;-72
2021/12/31 03:11:55;;;;;;;3.78;2.05;;;;;;;13.08;95.87;101711.63;4902429;28;20073;-74
2021/12/31 03:14:21;;;;;;;3.65;1.83;;;;;;;13.00;95.78;101712.16;4938262;28;20268;-73
2021/12/31 03:16:47;;;;;;;6.95;2.20;;;;;;;13.02;95.15;101706.69;4936569;28;20041;-73
2021/12/31 03:19:13;;;;;;;4.10;2.10;;;;;;;13.10;95.18;101701.59;4937070;28;20475;-73
2021/12/31 03:21:38;;;;;;;5.78;1.95;;;;;;;13.15;94.56;101702.06;4918057;28;20407;-73
2021/12/31 03:24:03;;;;;;;7.25;3.03;;;;;;;13.00;94.88;101693.31;4906966;28;20058;-72
2021/12/31 03:26:29;;;;;;;6.05;2.13;;;;;;;13.13;94.77;101695.09;4924233;29;20384;-73
2021/12/31 03:28:54;;;;;;;9.25;2.80;;;;;;;13.35;93.89;101695.19;4926029;29;20027;-72
2021/12/31 03:31:19;;;;;;;8.35;2.42;;;;;;;13.14;94.39;101704.91;4946235;28;20035;-72
2021/12/31 03:33:45;;;;;;;5.43;2.60;;;;;;;13.12;94.77;101706.84;4943353;28;20050;-73
2021/12/31 03:36:10;;;;;;;4.22;2.13;;;;;;;13.19;94.29;101698.19;4928282;29;20035;-74
2021/12/31 03:38:35;;;;;;;9.52;2.80;;;;;;;13.01;95.38;101699.56;4943556;28;20031;-73
2021/12/31 03:41:01;;;;;;;8.48;2.42;;;;;;;12.93;95.99;101708.22;4939525;28;20128;-73
2021/12/31 03:43:26;;;;;;;6.28;2.20;;;;;;;12.83;96.08;101691.00;4906604;28;20037;-74
2021/12/31 03:45:53;;;;;;;5.47;2.15;;;;;;;12.79;96.83;101702.97;4923588;28;20523;-72
2021/12/31 03:48:19;;;;;;;6.13;2.40;;;;;;;12.74;97.41;101704.19;4922378;28;20043;-74
2021/12/31 03:50:44;;;;;;;6.97;2.65;;;;;;;12.94;95.88;101671.34;4940261;28;20389;-73
2021/12/31 03:53:10;;;;;;;6.05;3.15;;;;;;;12.93;95.99;101701.97;4941188;28;20035;-75
2021/12/31 03:55:35;;;;;;;5.57;2.65;;;;;;;12.69;97.18;101682.13;4918583;28;20121;-73
2021/12/31 03:58:00;;;;;;;4.07;2.45;;;;;;;12.80;95.73;101675.06;4912205;28;20167;-73
2021/12/31 04:00:28;;;;;;;4.97;2.70;;;;;;;12.78;96.12;101690.47;4923576;28;20019;-73
2021/12/31 04:02:55;;;;;;;8.32;2.97;;;;;;;13.00;95.83;101679.81;4940115;28;20027;-73
2021/12/31 04:05:22;;;;;;;6.20;2.50;;;;;;;13.17;94.39;101681.25;4922001;28;20040;-74
2021/12/31 04:07:47;;;;;;;4.85;2.47;;;;;;;12.80;96.49;101675.94;4937699;28;20035;-74
2021/12/31 04:10:13;;;;;;;5.78;3.08;;;;;;;13.04;95.26;101686.72;4905767;28;20047;-74
2021/12/31 04:12:38;;;;;;;7.38;3.00;;;;;;;12.94;96.10;101688.41;4921369;28;20035;-72
2021/12/31 04:15:04;;;;;;;5.20;2.65;;;;;;;12.79;95.83;101674.22;4920391;28;20040;-72
2021/12/31 04:17:29;;;;;;;8.80;3.20;;;;;;;12.63;97.49;101679.88;4906427;28;20037;-73
2021/12/31 04:19:56;;;;;;;5.25;2.65;;;;;;;12.49;98.58;101682.69;4939166;28;20148;-74
2021/12/31 04:22:24;;;;;;;5.95;2.78;;;;;;;12.71;96.78;101669.38;4922395;28;20061;-74
2021/12/31 04:27:15;;;;;;;5.22;2.90;;;;;;;12.80;96.48;101678.63;4939497;28;20043;-71
2021/12/31 04:29:40;;;;;;;9.27;3.47;;;;;;;12.72;96.98;101672.94;4906437;28;20028;-72
2021/12/31 04:32:06;;;;;;;9.68;3.33;;;;;;;12.92;95.76;101657.13;4919652;28;20472;-72
2021/12/31 04:34:31;;;;;;;7.85;2.90;;;;;;;12.85;96.13;101672.91;4906526;28;20354;-74
2021/12/31 04:36:57;;;;;;;9.02;2.80;;;;;;;12.57;97.30;101667.72;4920822;28;20577;-72
2021/12/31 04:39:22;;;;;;;8.32;3.50;;;;;;;12.81;96.82;101650.72;4919886;28;20059;-73
2021/12/31 04:41:48;;;;;;;7.10;3.35;;;;;;;12.87;95.84;101646.69;4919484;28;20043;-74
2021/12/31 04:44:13;;;;;;;9.50;3.28;;;;;;;12.79;96.65;101668.81;4919632;28;20087;-73
2021/12/31 04:46:38;;;;;;;6.85;2.55;;;;;;;12.58;98.17;101661.34;4925071;28;20432;-73
2021/12/31 04:49:06;;;;;;;7.10;3.42;;;;;;;12.87;97.18;101654.78;4920784;28;20415;-75
2021/12/31 04:51:31;;;;;;;7.45;2.88;;;;;;;12.80;96.69;101665.16;4921205;28;20042;-73
2021/12/31 04:53:56;;;;;;;6.07;3.88;;;;;;;12.63;96.61;101646.66;4905533;28;20031;-72
2021/12/31 04:56:22;;;;;;;5.65;2.63;;;;;;;12.68;97.01;101671.44;4921133;28;20499;-72
2021/12/31 04:58:47;;;;;;;4.55;3.30;;;;;;;12.63;97.36;101652.06;4920529;28;20041;-74
2021/12/31 05:01:12;;;;;;;9.40;3.20;;;;;;;12.76;96.73;101663.66;4935159;28;20460;-73
2021/12/31 05:03:37;;;;;;;5.32;2.55;;;;;;;12.58;97.57;101674.81;4938918;28;20130;-73
2021/12/31 05:06:03;;;;;;;8.20;2.72;;;;;;;12.63;97.15;101663.72;4915770;28;20028;-74
2021/12/31 05:08:28;;;;;;;8.88;2.88;;;;;;;12.83;96.90;101672.16;4918677;28;20039;-75
2021/12/31 05:10:54;;;;;;;4.60;3.30;;;;;;;12.63;97.50;101669.09;4907033;28;20031;-72
2021/12/31 05:13:20;;;;;;;7.75;3.40;;;;;;;12.83;96.46;101666.75;4919765;28;20419;-75
2021/12/31 05:15:47;;;;;;;7.65;2.80;;;;;;;12.66;97.04;101666.19;4907227;28;20406;-75
2021/12/31 05:18:13;;;;;;;7.80;3.50;;;;;;;12.94;95.43;101677.59;4918408;28;20034;-74
2021/12/31 05:20:39;;;;;;;5.47;2.53;;;;;;;12.74;96.21;101679.09;4920377;28;20027;-72
2021/12/31 05:23:04;;;;;;;6.70;3.00;;;;;;;12.64;96.54;101680.72;4918141;28;20039;-71
2021/12/31 05:25:30;;;;;;;10.35;3.58;;;;;;;12.73;95.55;101656.66;4939582;28;20022;-74
2021/12/31 05:27:55;;;;;;;6.03;3.00;;;;;;;12.58;96.51;101658.63;4907291;28;20134;-72
2021/12/31 05:30:21;;;;;;;7.63;2.80;;;;;;;12.80;95.48;101658.91;4918376;28;20086;-73
2021/12/31 05:32:47;;;;;;;6.50;3.22;;;;;;;12.78;95.17;101650.94;4917878;28;20042;-72
2021/12/31 05:35:13;;;;;;;10.98;3.33;;;;;;;12.82;95.00;101640.78;4922541;28;20452;-72
2021/12/31 05:37:38;;;;;;;5.53;3.15;;;;;;;12.68;95.82;101631.03;4922042;28;20038;-74
2021/12/31 05:40:04;;;;;;;5.65;2.83;;;;;;;12.66;95.67;101641.94;4922210;28;20031;-71
2021/12/31 05:42:29;;;;;;;8.35;3.72;;;;;;;12.89;94.27;101639.34;4940197;28;20488;-73
2021/12/31 05:44:54;;;;;;;5.13;2.83;;;;;;;12.80;94.60;101637.34;4924280;28;20130;-72
2021/12/31 05:47:20;;;;;;;6.82;3.03;;;;;;;12.64;95.73;101616.94;4908821;28;20027;-72
2021/12/31 05:49:46;;;;;;;10.25;3.72;;;;;;;12.77;95.36;101621.41;4920626;28;20147;-75
2021/12/31 05:52:11;;;;;;;4.70;2.88;;;;;;;12.58;95.22;101610.16;4919931;28;20305;-72
2021/12/31 05:54:36;;;;;;;6.68;3.10;;;;;;;12.65;94.97;101618.66;4919043;28;20058;-71
2021/12/31 05:57:02;;;;;;;8.77;3.67;;;;;;;12.74;94.46;101617.97;4935465;28;20069;-71
2021/12/31 05:59:27;;;;;;;5.88;2.50;;;;;;;12.56;94.83;101622.03;4920306;28;20054;-71
2021/12/31 06:01:53;;;;;;;7.50;3.13;;;;;;;12.67;94.79;101630.19;4936276;28;20982;-72
2021/12/31 06:04:18;;;;;;;6.43;2.88;;;;;;;12.55;95.04;101639.16;4934769;28;20039;-73
2021/12/31 06:06:44;;;;;;;5.40;2.95;;;;;;;12.70;94.30;101638.03;4936041;28;20078;-74
2021/12/31 06:09:11;;;;;;;5.97;2.80;;;;;;;12.61;95.13;101644.09;4924167;28;20546;-73
2021/12/31 06:11:37;;;;;;;7.20;3.40;;;;;;;12.67;94.80;101645.47;4939025;28;20042;-73
2021/12/31 06:14:04;;;;;;;4.75;2.53;;;;;;;12.45;95.65;101647.91;4941327;28;20031;-73
2021/12/31 06:16:41;;;;;;;5.18;2.70;;;;;;;12.43;95.30;101638.22;4939745;28;20050;-72
2021/12/31 06:19:08;;;;;;;6.82;3.15;;;;;;;12.65;94.45;101642.03;4924761;28;20035;-73
2021/12/31 06:21:38;;;;;;;6.63;3.10;;;;;;;12.44;95.09;101648.03;4938408;28;20020;-73
2021/12/31 06:24:04;;;;;;;3.80;2.63;;;;;;;12.61;94.57;101654.88;4919027;29;20035;-73
2021/12/31 06:26:29;;;;;;;4.82;3.10;;;;;;;12.60;93.70;101648.63;4926372;28;20038;-72
2021/12/31 06:28:55;;;;;;;3.65;2.40;;;;;;;12.27;95.49;101654.63;4924117;28;20451;-72
2021/12/31 06:31:21;;;;;;;4.50;2.60;;;;;;;12.11;96.27;101657.56;4924030;28;20708;-70
2021/12/31 06:33:46;;;;;;;5.03;2.90;;;;;;;12.23;96.52;101664.78;4943944;28;20035;-72
2021/12/31 06:36:12;;;;;;;11.45;3.17;;;;;;;12.37;95.22;101652.13;4939317;28;20074;-73
2021/12/31 06:38:37;;;;;;;5.95;2.80;;;;;;;12.20;95.50;101662.31;4939433;28;20086;-72
2021/12/31 06:41:02;;;;;;;4.78;2.40;;;;;;;12.10;95.81;101651.34;4940014;28;20043;-73
2021/12/31 06:43:28;;;;;;;7.88;2.78;;;;;;;12.05;96.07;101648.09;4920929;28;20460;-73
2021/12/31 06:45:53;;;;;;;7.63;2.70;;;;;;;12.15;95.87;101646.50;4922345;28;20497;-71
2021/12/31 06:48:18;;;;;;;5.68;2.85;;;;;;;12.10;95.64;101658.53;4936576;28;20035;-71
2021/12/31 06:50:44;;;;;;;8.77;2.70;;;;;;;11.99;95.87;101654.78;4936757;28;20126;-71
2021/12/31 06:53:09;;;;;;;7.97;3.20;;;;;;;11.98;96.50;101661.13;4937715;28;20046;-72
2021/12/31 06:55:35;;;;;;;7.03;2.83;;;;;;;11.88;96.37;101657.34;4938890;28;20046;-71
2021/12/31 06:58:00;;;;;;;6.43;2.58;;;;;;;11.80;96.26;101640.88;4941106;28;20035;-75
2021/12/31 07:00:25;;;;;;;7.00;2.75;;;;;;;11.65;97.92;101656.28;4935601;28;20062;-72
2021/12/31 07:02:51;;;;;;;5.47;2.63;;;;;;;11.57;98.35;101656.78;4935889;28;20262;-74
2021/12/31 07:05:17;;;;;;;7.38;3.05;;;;;;;11.63;98.14;101661.75;4938192;28;20038;-71
2021/12/31 07:07:42;;;;;;;5.32;3.03;;;;;;;11.65;97.78;101642.81;4937457;28;20047;-73
2021/12/31 07:10:07;;;;;;;5.75;2.90;;;;;;;11.74;97.20;101652.94;4922373;28;20452;-72
2021/12/31 07:12:33;;;;;;;8.60;3.20;;;;;;;11.62;97.94;101649.25;4939031;28;20624;-72
2021/12/31 07:14:58;;;;;;;7.72;3.03;;;;;;;11.43;98.46;101648.81;4938326;28;20034;-72
2021/12/31 07:17:24;;;;;;;7.15;2.70;;;;;;;11.68;97.48;101654.22;4942107;28;20040;-69
2021/12/31 07:19:49;;;;;;;5.18;2.85;;;;;;;11.56;98.13;101641.63;4938377;28;20304;-73
2021/12/31 07:22:14;;;;;;;6.15;3.05;;;;;;;11.57;98.18;101653.25;4908191;28;20035;-74
2021/12/31 07:24:39;;;;;;;6.72;2.60;;;;;;;11.35;99.51;101642.13;4920536;28;20062;-74
2021/12/31 07:27:05;;;;;;;5.28;2.88;;;;;;;11.50;98.36;101642.91;4919194;28;20038;-73
2021/12/31 07:29:30;;;;;;;8.02;3.60;;;;;;;11.36;98.92;101640.31;4920414;28;20069;-71
2021/12/31 07:31:55;;;;;;;6.07;3.75;;;;;;;11.62;97.86;101640.34;4921962;28;20035;-71
2021/12/31 07:34:21;;;;;;;15.68;3.30;;;;;;;11.29;99.34;101647.06;4920218;28;20889;-73
2021/12/31 07:36:46;;;;;;;6.82;3.70;;;;;;;11.20;100.00;101651.25;4939688;28;20031;-72
2021/12/31 07:39:13;;;;;;;6.03;3.22;;;;;;;11.22;100.00;101652.84;4920217;28;20039;-73
2021/12/31 07:41:38;;;;;;;8.90;3.45;;;;;;;11.15;100.00;101654.22;4933877;28;20027;-70
2021/12/31 07:44:06;;;;;;;6.90;3.67;;;;;;;11.37;99.78;101660.88;4920695;28;20574;-72
2021/12/31 07:46:31;;;;;;;7.63;3.42;;;;;;;11.31;98.88;101656.75;4941288;28;20073;-72
2021/12/31 07:48:56;;;;;;;4.32;2.83;;;;;;;11.20;100.00;101662.84;4940793;28;20165;-72
2021/12/31 07:51:22;;;;;;;6.28;2.58;;;;;;;11.07;100.00;101659.28;4939187;28;20047;-71
2021/12/31 07:53:47;;;;;;;4.03;3.35;;;;;;;11.45;98.37;101652.28;4919823;28;20077;-70
2021/12/31 07:56:14;;;;;;;4.15;2.70;;;;;;;11.15;99.09;101677.56;4901200;28;20027;-72
2021/12/31 07:58:39;;;;;;;7.40;3.53;;;;;;;11.13;100.00;101671.44;4938073;28;20031;-71
2021/12/31 08:01:04;;;;;;;7.03;3.65;;;;;;;11.28;99.09;101645.34;4941388;28;20038;-71
2021/12/31 08:03:31;;;;;;;6.05;3.10;;;;;;;11.25;99.23;101662.56;4927099;29;20337;-72
2021/12/31 08:05:56;;;;;;;5.72;2.85;;;;;;;11.29;99.14;101673.97;4925646;29;20110;-70
2021/12/31 08:08:21;;;;;;;3.63;2.95;;;;;;;11.20;99.45;101678.13;4941855;28;20039;-70
2021/12/31 08:10:47;;;;;;;6.70;2.80;;;;;;;11.19;99.22;101671.03;4930435;28;20102;-70
2021/12/31 08:13:13;;;;;;;4.90;3.17;;;;;;;11.07;100.00;101667.34;4930923;29;20034;-71
2021/12/31 08:15:38;;;;;;;11.10;3.72;;;;;;;11.33;98.70;101681.69;4922972;28;20041;-71
2021/12/31 08:18:04;;;;;;;5.13;2.97;;;;;;;11.43;98.40;101671.19;4912085;29;20403;-73
2021/12/31 08:20:29;;;;;;;6.63;4.15;;;;;;;11.42;98.28;101660.53;4929725;29;20066;-72
2021/12/31 08:22:55;;;;;;;9.27;3.20;;;;;;;11.40;98.62;101660.63;4948995;28;20027;-72
2021/12/31 08:25:21;;;;;;;5.97;2.92;;;;;;;11.16;98.91;101647.88;4931211;28;20475;-72
2021/12/31 08:27:46;;;;;;;5.53;3.38;;;;;;;11.36;98.17;101665.38;4932765;28;20028;-70
2021/12/31 08:30:12;;;;;;;4.30;3.03;;;;;;;11.43;98.19;101660.41;4912196;28;20633;-72
2021/12/31 08:32:37;;;;;;;7.93;3.22;;;;;;;11.39;97.63;101678.59;4925796;28;20420;-74
2021/12/31 08:35:06;;;;;;;9.35;3.35;;;;;;;11.18;98.93;101685.44;4910236;29;20039;-71
2021/12/31 08:37:32;;;;;;;8.05;4.40;;;;;;;11.30;97.98;101657.72;4930078;29;20031;-71
2021/12/31 08:39:57;;;;;;;5.55;3.38;;;;;;;11.40;97.00;101682.13;4926580;29;20023;-71
2021/12/31 08:42:23;;;;;;;5.00;3.20;;;;;;;11.36;96.75;101667.22;4926685;28;20058;-74
2021/12/31 08:44:49;;;;;;;4.80;3.58;;;;;;;11.63;95.80;101683.25;4924677;29;20028;-69
2021/12/31 08:47:14;;;;;;;5.22;3.15;;;;;;;11.63;96.02;101677.03;4943525;28;20035;-74
2021/12/31 08:49:39;;;;;;;4.93;2.50;;;;;;;11.42;96.92;101665.91;4926485;28;20081;-71
2021/12/31 08:52:05;;;;;;;4.75;2.63;;;;;;;11.37;97.44;101669.78;4942849;28;20063;-70
2021/12/31 08:54:30;;;;;;;9.10;2.92;;;;;;;11.43;96.27;101681.09;4946035;28;20042;-70
2021/12/31 08:56:55;;;;;;;5.32;3.30;;;;;;;11.50;96.72;101677.03;4940473;28;20472;-72
2021/12/31 08:59:21;;;;;;;7.38;3.85;;;;;;;11.82;94.77;101664.03;4942209;28;20029;-74
2021/12/31 09:01:46;;;;;;;4.25;2.78;;;;;;;11.64;95.00;101663.47;4927758;28;20768;-72
2021/12/31 09:04:12;;;;;;;4.90;2.53;;;;;;;11.57;95.73;101666.69;4945761;28;20035;-71
2021/12/31 09:06:38;;;;;;;5.65;3.65;;;;;;;11.66;94.35;101656.16;4943021;28;20027;-74
2021/12/31 09:09:04;;;;;;;5.32;3.10;;;;;;;11.68;94.19;101647.97;4925661;28;20031;-72
2021/12/31 09:11:30;;;;;;;7.57;3.55;;;;;;;11.88;93.48;101653.81;4929132;29;20058;-72
2021/12/31 09:13:57;;;;;;;7.00;3.17;;;;;;;11.81;93.00;101648.84;4943972;28;20069;-71
2021/12/31 09:16:22;;;;;;;10.07;3.42;;;;;;;11.89;92.87;101645.59;4944985;28;20046;-70
2021/12/31 09:18:48;;;;;;;3.95;2.25;;;;;;;11.91;92.07;101656.28;4941561;28;20062;-71
2021/12/31 09:21:17;;;;;;;5.72;2.55;;;;;;;11.87;92.66;101657.47;4940171;28;20468;-72
2021/12/31 09:23:43;;;;;;;4.80;2.75;;;;;;;11.98;92.53;101660.22;4939828;28;20031;-75
2021/12/31 09:26:08;;;;;;;5.65;3.15;;;;;;;11.98;92.18;101673.69;4938243;28;20038;-72
2021/12/31 09:28:33;;;;;;;3.63;2.65;;;;;;;12.11;91.57;101662.94;4942693;28;20042;-73
2021/12/31 09:31:01;;;;;;;5.25;2.67;;;;;;;12.02;91.64;101664.47;4939629;28;20064;-72
2021/12/31 09:33:27;;;;;;;3.50;2.47;;;;;;;12.13;91.15;101656.50;4940133;28;20035;-74
2021/12/31 09:35:52;;;;;;;3.38;2.35;;;;;;;12.06;91.56;101659.72;4940300;28;20059;-72
2021/12/31 09:38:17;;;;;;;4.35;2.30;;;;;;;12.03;91.73;101660.81;4910903;28;20160;-72
2021/12/31 09:40:43;;;;;;;5.03;2.60;;;;;;;12.28;90.85;101664.44;4936405;28;20031;-75
2021/12/31 09:43:11;;;;;;;4.95;2.40;;;;;;;12.39;89.72;101672.63;4907475;28;20027;-73
2021/12/31 09:45:38;;;;;;;4.18;2.30;;;;;;;12.53;89.08;101673.44;4923654;28;20039;-72
2021/12/31 09:48:07;;;;;;;5.82;2.70;;;;;;;12.14;90.65;101681.56;4939022;28;20074;-71
2021/12/31 09:50:35;;;;;;;3.42;2.50;;;;;;;12.16;90.25;101685.03;4940486;28;20086;-72
2021/12/31 09:53:01;;;;;;;2.63;2.00;;;;;;;12.29;90.54;101701.16;4926703;28;20057;-72
2021/12/31 09:55:40;;;;;;;4.20;2.30;;;;;;;12.09;90.43;101697.19;4906360;28;20036;-70
2021/12/31 09:58:07;;;;;;;5.88;2.63;;;;;;;12.40;90.03;101703.97;4940848;28;20042;-70
2021/12/31 10:00:32;;;;;;;2.60;2.38;;;;;;;12.20;90.39;101705.38;4940623;28;20900;-71
2021/12/31 10:03:17;;;;;;;5.57;2.58;;;;;;;12.23;90.45;101717.75;4941641;28;20058;-71
2021/12/31 10:05:48;;;;;;;3.05;2.55;;;;;;;12.31;89.50;101715.38;4920064;29;20042;-68
2021/12/31 10:08:22;;;;;;;4.25;2.28;;;;;;;12.15;90.64;101718.28;4922576;29;20035;-70
2021/12/31 10:11:14;;;;;;;3.38;1.75;;;;;;;12.23;90.75;101717.75;4923159;29;20337;-72
2021/12/31 10:13:42;;;;;;;4.00;2.25;;;;;;;12.15;90.74;101710.22;4905598;28;20027;-69
2021/12/31 10:16:20;;;;;;;7.10;2.97;;;;;;;12.18;90.81;101717.25;4940351;28;20028;-72
2021/12/31 10:18:47;;;;;;;3.33;2.40;;;;;;;12.15;90.92;101705.72;4946680;28;20071;-72
2021/12/31 10:21:12;;;;;;;4.43;2.42;;;;;;;12.22;90.58;101681.03;4927040;28;20468;-74
2021/12/31 10:23:38;;;;;;;4.30;2.38;;;;;;;12.04;91.18;101656.31;4922644;29;20046;-71
2021/12/31 10:26:15;;;;;;;4.03;2.50;;;;;;;11.98;92.29;101701.47;4937276;28;20116;-71
2021/12/31 10:28:58;;;;;;;4.20;2.45;;;;;;;12.08;91.91;101704.41;4921933;28;20023;-72
2021/12/31 10:31:23;;;;;;;2.78;2.00;;;;;;;11.91;91.74;101665.19;4936700;28;20057;-71
2021/12/31 10:33:49;;;;;;;4.25;2.42;;;;;;;12.12;91.55;101667.38;4924368;29;22165;-72
2021/12/31 10:36:35;;;;;;;4.90;2.70;;;;;;;12.32;90.24;101675.84;4936183;28;20051;-76
2021/12/31 10:39:15;;;;;;;6.18;2.90;;;;;;;12.26;90.40;101661.88;4939497;28;20039;-72
2021/12/31 10:41:41;;;;;;;4.80;2.72;;;;;;;12.12;91.56;101661.97;4922804;28;20034;-73
2021/12/31 10:44:06;;;;;;;6.35;2.67;;;;;;;12.11;91.63;101669.22;4945344;28;20031;-72
2021/12/31 10:46:31;;;;;;;8.23;2.75;;;;;;;12.24;91.14;101673.69;4942931;28;20035;-70
2021/12/31 10:49:03;;;;;;;3.78;2.67;;;;;;;12.30;90.91;101663.38;4925533;29;20031;-70
2021/12/31 10:51:40;;;;;;;6.05;2.60;;;;;;;12.34;91.98;101679.28;4926429;28;20027;-70
2021/12/31 10:55:16;;;;;;;5.85;3.42;;;;;;;12.56;89.81;101675.91;4943814;28;20035;-71
2021/12/31 10:57:33;;;;;;;3.72;2.70;;;;;;;12.36;91.53;101686.28;4921212;28;20050;-72
2021/12/31 10:59:59;;;;;;;5.28;2.80;;;;;;;12.30;90.72;101686.72;4926984;28;20034;-71
2021/12/31 11:02:24;;;;;;;3.83;2.25;;;;;;;12.29;91.00;101693.09;4907018;29;20059;-71
2021/12/31 11:04:50;;;;;;;5.75;3.22;;;;;;;12.47;89.78;101665.78;4940854;28;20070;-70
2021/12/31 11:07:15;;;;;;;5.25;3.03;;;;;;;12.33;91.29;101693.72;4939098;28;20126;-71
2021/12/31 11:09:42;;;;;;;5.53;3.03;;;;;;;12.38;90.26;101661.94;4939433;28;20503;-70
2021/12/31 11:12:08;;;;;;;4.75;3.03;;;;;;;12.45;89.56;101660.53;4924383;28;20032;-71
2021/12/31 11:14:36;;;;;;;4.30;3.08;;;;;;;12.50;90.40;101660.19;4926035;29;20042;-70
2021/12/31 11:17:02;;;;;;;7.80;3.50;;;;;;;12.82;88.89;101662.34;4923282;28;20040;-71
2021/12/31 11:19:27;;;;;;;6.03;2.85;;;;;;;12.96;87.87;101648.72;4939548;28;20061;-72
2021/12/31 11:21:53;;;;;;;5.10;2.60;;;;;;;12.83;87.97;101639.81;4940875;28;20031;-71
2021/12/31 11:24:34;;;;;;;5.60;3.22;;;;;;;13.25;85.79;101628.59;4921280;28;20062;-71
2021/12/31 11:27:00;;;;;;;5.00;3.00;;;;;;;14.25;81.46;101638.78;4938979;28;20027;-70
2021/12/31 11:29:35;;;;;;;5.28;2.92;;;;;;;14.96;78.92;101648.38;4921147;29;20045;-70